createdAt,value
2023-04-18T00:01:10.238Z,98242.81
2023-04-18T00:03:40.576Z,98237.94
2023-04-18T00:06:07.900Z,98241.34
2023-04-18T00:08:35.837Z,98234.47
2023-04-18T00:11:02.843Z,98235.75
2023-04-18T00:13:30.844Z,98234.69
2023-04-18T00:15:58.347Z,98238.94
2023-04-18T00:18:28.539Z,98237.94
2023-04-18T00:20:57.175Z,98230.34
2023-04-18T00:23:28.305Z,98223.97
2023-04-18T00:25:58.317Z,98227.06
2023-04-18T00:28:25.436Z,98222.03
2023-04-18T00:30:52.484Z,98211.16
2023-04-18T00:33:19.890Z,98210.84
2023-04-18T00:35:46.992Z,98219.25
2023-04-18T00:38:15.107Z,98211.16
2023-04-18T00:40:42.054Z,98208.63
2023-04-18T00:43:09.356Z,98210.38
2023-04-18T00:45:37.380Z,98214.50
2023-04-18T00:48:05.034Z,98209.19
2023-04-18T00:50:33.117Z,98211.72
2023-04-18T00:53:01.033Z,98216.34
2023-04-18T00:55:29.711Z,98203.59
2023-04-18T00:57:57.989Z,98202.81
2023-04-18T01:00:26.104Z,98198.97
2023-04-18T01:02:56.002Z,98191.84
2023-04-18T01:05:27.994Z,98200.53
2023-04-18T01:08:01.330Z,98193.66
2023-04-18T01:10:33.097Z,98189.34
2023-04-18T01:13:17.784Z,98189.34
2023-04-18T01:15:46.681Z,98192.91
2023-04-18T01:18:18.352Z,98186.59
2023-04-18T01:20:54.069Z,98190.47
2023-04-18T01:23:21.502Z,98187.94
2023-04-18T01:25:52.273Z,98197.03
2023-04-18T01:28:23.075Z,98193.47
2023-04-18T01:30:51.395Z,98206.91
2023-04-18T01:33:19.642Z,98207.38
2023-04-18T01:35:48.309Z,98205.81
2023-04-18T01:38:17.122Z,98200.69
2023-04-18T01:40:44.479Z,98188.75
2023-04-18T01:43:13.938Z,98193.38
2023-04-18T01:45:43.176Z,98198.19
2023-04-18T01:48:10.124Z,98198.19
2023-04-18T01:50:37.155Z,98189.91
2023-04-18T01:53:04.358Z,98193.94
2023-04-18T01:55:31.248Z,98197.03
2023-04-18T01:57:58.309Z,98184.31
2023-04-18T02:00:25.737Z,98188.56
2023-04-18T02:02:52.814Z,98197.22
2023-04-18T02:05:22.975Z,98183.63
2023-04-18T02:07:50.550Z,98190.00
2023-04-18T02:10:19.711Z,98184.13
2023-04-18T02:12:47.734Z,98186.91
2023-04-18T02:15:15.104Z,98189.50
2023-04-18T02:17:42.605Z,98187.78
2023-04-18T02:20:11.266Z,98191.25
2023-04-18T02:22:39.760Z,98191.06
2023-04-18T02:25:07.929Z,98184.97
2023-04-18T02:27:35.466Z,98187.31
2023-04-18T02:30:02.681Z,98189.03
2023-04-18T02:32:33.381Z,98191.63
2023-04-18T02:35:02.091Z,98187.31
2023-04-18T02:37:30.610Z,98193.38
2023-04-18T02:39:58.026Z,98188.75
2023-04-18T02:42:29.501Z,98190.69
2023-04-18T02:44:56.487Z,98187.31
2023-04-18T02:47:24.836Z,98191.38
2023-04-18T02:49:54.162Z,98193.19
2023-04-18T02:52:21.307Z,98192.44
2023-04-18T02:54:48.405Z,98190.69
2023-04-18T02:57:20.227Z,98191.47
2023-04-18T02:59:56.261Z,98196.28
2023-04-18T03:02:42.724Z,98213.84
2023-04-18T03:05:25.203Z,98200.63
2023-04-18T03:07:57.677Z,98208.06
2023-04-18T03:10:25.174Z,98205.94
2023-04-18T03:12:52.879Z,98201.31
2023-04-18T03:15:21.695Z,98203.63
2023-04-18T03:17:49.625Z,98202.66
2023-04-18T03:20:18.049Z,98207.00
2023-04-18T03:22:45.107Z,98202.19
2023-04-18T03:25:13.588Z,98200.34
2023-04-18T03:27:45.253Z,98209.03
2023-04-18T03:30:15.237Z,98208.25
2023-04-18T03:32:49.550Z,98202.84
2023-04-18T03:35:16.605Z,98202.84
2023-04-18T03:37:43.768Z,98202.84
2023-04-18T03:40:12.198Z,98194.94
2023-04-18T03:42:40.291Z,98203.34
2023-04-18T03:45:08.525Z,98197.72
2023-04-18T03:47:38.230Z,98204.78
2023-04-18T03:50:09.332Z,98197.63
2023-04-18T03:52:36.632Z,98200.16
2023-04-18T03:55:05.200Z,98208.25
2023-04-18T03:57:34.127Z,98203.16
2023-04-18T04:00:06.463Z,98206.44
2023-04-18T04:02:42.899Z,98208.94
2023-04-18T04:05:15.876Z,98201.88
2023-04-18T04:07:43.722Z,98207.31
2023-04-18T04:10:13.658Z,98211.34
2023-04-18T04:12:40.818Z,98210.09
2023-04-18T04:15:08.245Z,98213.66
2023-04-18T04:17:38.429Z,98217.72
2023-04-18T04:20:08.407Z,98219.06
2023-04-18T04:22:37.789Z,98215.19
2023-04-18T04:25:06.060Z,98227.06
2023-04-18T04:27:39.456Z,98231.13
2023-04-18T04:30:13.547Z,98228.81
2023-04-18T04:32:41.064Z,98223.50
2023-04-18T04:35:08.828Z,98228.34
2023-04-18T04:37:36.258Z,98229.09
2023-04-18T04:40:15.936Z,98229.38
2023-04-18T04:42:44.232Z,98221.56
2023-04-18T04:45:19.654Z,98228.41
2023-04-18T04:47:48.146Z,98218.50
2023-04-18T04:50:15.988Z,98236.59
2023-04-18T04:52:43.690Z,98220.69
2023-04-18T04:55:11.316Z,98220.78
2023-04-18T04:57:38.733Z,98214.22
2023-04-18T05:00:21.639Z,98213.25
2023-04-18T05:02:49.724Z,98217.69
2023-04-18T05:05:17.078Z,98219.22
2023-04-18T05:07:45.885Z,98224.06
2023-04-18T05:10:13.391Z,98228.88
2023-04-18T05:12:41.488Z,98216.44
2023-04-18T05:15:09.974Z,98231.19
2023-04-18T05:17:37.114Z,98230.22
2023-04-18T05:20:05.211Z,98232.81
2023-04-18T05:22:32.755Z,98225.41
2023-04-18T05:24:59.727Z,98226.94
2023-04-18T05:27:27.264Z,98240.44
2023-04-18T05:29:56.387Z,98230.78
2023-04-18T05:32:23.567Z,98229.81
2023-04-18T05:34:51.693Z,98230.78
2023-04-18T05:37:19.661Z,98241.69
2023-04-18T05:39:47.722Z,98233.03
2023-04-18T05:42:14.880Z,98237.38
2023-04-18T05:44:41.829Z,98242.97
2023-04-18T05:47:08.845Z,98247.59
2023-04-18T05:49:35.806Z,98254.75
2023-04-18T05:52:02.817Z,98240.44
2023-04-18T05:54:29.823Z,98241.78
2023-04-18T05:56:57.560Z,98248.34
2023-04-18T05:59:27.086Z,98246.19
2023-04-18T06:01:54.969Z,98249.94
2023-04-18T06:04:22.283Z,98247.56
2023-04-18T06:06:51.720Z,98254.66
2023-04-18T06:09:19.888Z,98249.47
2023-04-18T06:11:49.570Z,98248.91
2023-04-18T06:14:16.993Z,98251.81
2023-04-18T06:16:44.141Z,98262.13
2023-04-18T06:19:11.148Z,98264.22
2023-04-18T06:21:42.277Z,98272.72
2023-04-18T06:24:09.818Z,98273.75
2023-04-18T06:26:37.204Z,98273.25
2023-04-18T06:29:04.738Z,98285.81
2023-04-18T06:31:34.684Z,98278.41
2023-04-18T06:34:01.708Z,98285.03
2023-04-18T06:36:28.681Z,98296.53
2023-04-18T06:38:55.920Z,98293.53
2023-04-18T06:41:23.391Z,98298.91
2023-04-18T06:44:02.735Z,98289.25
2023-04-18T06:46:32.372Z,98302.97
2023-04-18T06:49:00.460Z,98298.91
2023-04-18T06:51:29.228Z,98295.13
2023-04-18T06:53:56.487Z,98299.19
2023-04-18T06:56:23.714Z,98300.03
2023-04-18T06:58:53.133Z,98299.31
2023-04-18T07:01:22.604Z,98300.34
2023-04-18T07:03:49.673Z,98305.19
2023-04-18T07:06:16.735Z,98295.75
2023-04-18T07:08:43.947Z,98314.69
2023-04-18T07:11:13.649Z,98307.28
2023-04-18T07:13:41.717Z,98301.25
2023-04-18T07:16:10.181Z,98296.75
2023-04-18T07:18:38.533Z,98299.41
2023-04-18T07:21:09.261Z,98302.06
2023-04-18T07:23:36.701Z,98301.13
2023-04-18T07:26:05.960Z,98295.78
2023-04-18T07:28:34.568Z,98305.59
2023-04-18T07:31:03.374Z,98303.88
2023-04-18T07:33:36.594Z,98308.28
2023-04-18T07:36:03.905Z,98296.13
2023-04-18T07:38:31.033Z,98295.75
2023-04-18T07:41:04.671Z,98296.84
2023-04-18T07:43:31.856Z,98298.94
2023-04-18T07:45:59.151Z,98296.69
2023-04-18T07:48:26.281Z,98296.44
2023-04-18T07:50:54.141Z,98294.94
2023-04-18T07:53:21.347Z,98292.41
2023-04-18T07:55:49.253Z,98305.75
2023-04-18T07:58:16.958Z,98304.00
2023-04-18T08:00:44.996Z,98305.81
2023-04-18T08:03:13.771Z,98302.25
2023-04-18T08:05:43.026Z,98300.78
2023-04-18T08:08:11.481Z,98308.22
2023-04-18T08:10:41.163Z,98315.91
2023-04-18T08:13:09.845Z,98315.41
2023-04-18T08:15:36.998Z,98322.06
2023-04-18T08:18:24.261Z,98312.38
2023-04-18T08:20:51.276Z,98314.91
2023-04-18T08:23:20.082Z,98311.81
2023-04-18T08:25:47.953Z,98316.16
2023-04-18T08:28:15.280Z,98309.53
2023-04-18T08:30:43.711Z,98307.25
2023-04-18T08:33:11.692Z,98299.59
2023-04-18T08:35:39.894Z,98310.13
2023-04-18T08:38:07.380Z,98306.22
2023-04-18T08:40:34.694Z,98303.63
2023-04-18T08:43:05.220Z,98306.66
2023-04-18T08:45:33.708Z,98309.22
2023-04-18T08:48:03.705Z,98317.19
2023-04-18T08:50:32.087Z,98323.13
2023-04-18T08:53:07.068Z,98323.16
2023-04-18T08:55:36.070Z,98329.31
2023-04-18T08:58:08.026Z,98308.03
2023-04-18T09:00:35.626Z,98322.66
2023-04-18T09:03:04.621Z,98321.88
2023-04-18T09:05:32.056Z,98333.88
2023-04-18T09:07:59.473Z,98314.81
2023-04-18T09:10:29.328Z,98328.13
2023-04-18T09:12:59.133Z,98322.72
2023-04-18T09:15:28.799Z,98324.50
2023-04-18T09:17:58.449Z,98323.94
2023-04-18T09:20:41.638Z,98331.31
2023-04-18T09:23:14.968Z,98339.53
2023-04-18T09:25:44.516Z,98337.47
2023-04-18T09:28:33.654Z,98343.16
2023-04-18T09:31:13.239Z,98330.56
2023-04-18T09:33:44.926Z,98349.66
2023-04-18T09:36:19.524Z,98355.88
2023-04-18T09:38:47.215Z,98359.25
2023-04-18T09:41:21.208Z,98347.19
2023-04-18T09:43:48.733Z,98341.75
2023-04-18T09:46:17.919Z,98341.72
2023-04-18T09:48:44.986Z,98335.28
2023-04-18T09:51:16.201Z,98330.63
2023-04-18T09:53:48.050Z,98334.72
2023-04-18T09:56:25.253Z,98342.97
2023-04-18T09:58:57.273Z,98346.91
2023-04-18T10:01:28.716Z,98348.00
2023-04-18T10:03:57.581Z,98351.31
2023-04-18T10:06:27.609Z,98354.91
2023-04-18T10:08:55.263Z,98361.06
2023-04-18T10:11:24.414Z,98346.72
2023-04-18T10:13:56.107Z,98360.59
2023-04-18T10:16:23.440Z,98359.59
2023-04-18T10:18:51.382Z,98351.38
2023-04-18T10:21:18.308Z,98357.81
2023-04-18T10:23:48.972Z,98355.44
2023-04-18T10:26:16.525Z,98363.16
2023-04-18T10:28:59.647Z,98359.56
2023-04-18T10:31:28.583Z,98373.66
2023-04-18T10:36:30.412Z,98354.66
2023-04-18T10:39:04.034Z,98366.19
2023-04-18T10:41:32.234Z,98361.03
2023-04-18T10:44:18.427Z,98358.25
2023-04-18T10:46:48.961Z,98360.53
2023-04-18T10:49:16.988Z,98355.69
2023-04-18T10:51:51.764Z,98355.16
2023-04-18T10:54:33.092Z,98352.34
2023-04-18T10:57:04.728Z,98351.34
2023-04-18T10:59:34.037Z,98347.53
2023-04-18T11:02:07.334Z,98345.25
2023-04-18T11:04:34.421Z,98339.06
2023-04-18T11:07:01.754Z,98330.63
2023-04-18T11:09:28.676Z,98335.47
2023-04-18T11:12:06.633Z,98323.69
2023-04-18T11:15:01.578Z,98324.97
2023-04-18T11:17:32.909Z,98331.34
2023-04-18T11:20:09.024Z,98327.41
2023-04-18T11:22:52.142Z,98322.41
2023-04-18T11:25:22.474Z,98325.97
2023-04-18T11:27:55.831Z,98323.03
2023-04-18T11:30:22.868Z,98319.91
2023-04-18T11:32:49.788Z,98322.66
2023-04-18T11:35:16.703Z,98313.47
2023-04-18T11:37:45.824Z,98324.81
2023-04-18T11:40:14.156Z,98316.69
2023-04-18T11:42:41.844Z,98322.34
2023-04-18T11:45:15.836Z,98328.00
2023-04-18T11:47:43.613Z,98323.16
2023-04-18T11:50:12.386Z,98326.97
2023-04-18T11:52:42.617Z,98328.56
2023-04-18T11:55:24.852Z,98329.38
2023-04-18T11:57:53.566Z,98328.88
2023-04-18T12:00:31.802Z,98320.91
2023-04-18T12:02:59.724Z,98325.97
2023-04-18T12:05:29.647Z,98319.44
2023-04-18T12:08:05.270Z,98326.81
2023-04-18T12:10:33.205Z,98330.75
2023-04-18T12:13:00.225Z,98339.03
2023-04-18T12:15:29.643Z,98335.03
2023-04-18T12:18:01.604Z,98334.81
2023-04-18T12:20:36.725Z,98333.28
2023-04-18T12:23:03.887Z,98333.94
2023-04-18T12:25:30.946Z,98331.59
2023-04-18T12:28:15.226Z,98332.53
2023-04-18T12:30:42.507Z,98327.50
2023-04-18T12:33:09.484Z,98325.06
2023-04-18T12:35:36.941Z,98323.97
2023-04-18T12:38:05.128Z,98328.09
2023-04-18T12:40:32.046Z,98333.63
2023-04-18T12:42:59.490Z,98323.16
2023-04-18T12:45:27.606Z,98327.78
2023-04-18T12:47:54.580Z,98332.16
2023-04-18T12:50:25.673Z,98342.28
2023-04-18T12:52:54.152Z,98333.31
2023-04-18T12:55:23.057Z,98332.34
2023-04-18T12:57:51.941Z,98327.50
2023-04-18T13:00:18.907Z,98329.88
2023-04-18T13:02:46.295Z,98333.03
2023-04-18T13:05:15.830Z,98332.06
2023-04-18T13:07:43.390Z,98327.97
2023-04-18T13:10:12.570Z,98332.34
2023-04-18T13:12:41.088Z,98331.84
2023-04-18T13:15:09.208Z,98323.66
2023-04-18T13:17:37.094Z,98331.63
2023-04-18T13:20:10.209Z,98331.38
2023-04-18T13:22:37.970Z,98332.91
2023-04-18T13:25:05.999Z,98329.59
2023-04-18T13:27:33.044Z,98333.97
2023-04-18T13:30:00.058Z,98320.63
2023-04-18T13:32:27.305Z,98336.78
2023-04-18T13:34:56.287Z,98319.34
2023-04-18T13:37:23.947Z,98328.31
2023-04-18T13:39:51.069Z,98314.19
2023-04-18T13:42:19.672Z,98327.25
2023-04-18T13:44:46.914Z,98326.25
2023-04-18T13:47:13.867Z,98329.63
2023-04-18T13:49:41.163Z,98335.50
2023-04-18T13:52:08.110Z,98334.22
2023-04-18T13:54:35.266Z,98336.00
2023-04-18T13:57:03.422Z,98330.88
2023-04-18T13:59:33.355Z,98329.06
2023-04-18T14:02:00.452Z,98333.16
2023-04-18T14:04:27.786Z,98333.41
2023-04-18T14:06:55.853Z,98330.09
2023-04-18T14:09:22.951Z,98328.53
2023-04-18T14:11:51.277Z,98328.50
2023-04-18T14:14:18.364Z,98321.09
2023-04-18T14:16:45.364Z,98333.13
2023-04-18T14:19:13.031Z,98325.44
2023-04-18T14:21:41.598Z,98316.47
2023-04-18T14:24:09.471Z,98318.25
2023-04-18T14:26:36.756Z,98313.41
2023-04-18T14:29:05.452Z,98324.69
2023-04-18T14:31:32.888Z,98314.41
2023-04-18T14:34:00.354Z,98321.34
2023-04-18T14:36:27.855Z,98326.97
2023-04-18T14:38:55.293Z,98324.66
2023-04-18T14:41:22.216Z,98328.47
2023-04-18T14:43:49.397Z,98322.06
2023-04-18T14:46:16.863Z,98320.78
2023-04-18T14:48:47.501Z,98330.28
2023-04-18T14:51:17.821Z,98320.53
2023-04-18T14:53:45.204Z,98320.78
2023-04-18T14:56:12.376Z,98309.28
2023-04-18T14:58:39.321Z,98309.53
2023-04-18T15:01:06.252Z,98317.47
2023-04-18T15:03:33.500Z,98315.16
2023-04-18T15:06:00.627Z,98306.19
2023-04-18T15:08:27.742Z,98312.34
2023-04-18T15:10:55.473Z,98314.16
2023-04-18T15:13:22.449Z,98317.75
2023-04-18T15:15:53.269Z,98321.88
2023-04-18T15:18:20.707Z,98323.13
2023-04-18T15:20:48.210Z,98323.44
2023-04-18T15:23:16.054Z,98321.63
2023-04-18T15:25:44.979Z,98330.06
2023-04-18T15:28:15.037Z,98335.19
2023-04-18T15:30:42.214Z,98333.91
2023-04-18T15:33:11.402Z,98336.94
2023-04-18T15:35:38.458Z,98345.13
2023-04-18T15:38:05.744Z,98347.69
2023-04-18T15:40:33.268Z,98340.53
2023-04-18T15:43:00.525Z,98331.81
2023-04-18T15:45:27.487Z,98340.00
2023-04-18T15:47:55.170Z,98345.84
2023-04-18T15:50:23.968Z,98341.22
2023-04-18T15:52:50.947Z,98340.16
2023-04-18T15:55:17.907Z,98340.91
2023-04-18T15:57:44.837Z,98336.53
2023-04-18T16:00:19.839Z,98341.88
2023-04-18T16:02:47.287Z,98339.31
2023-04-18T16:05:14.512Z,98343.66
2023-04-18T16:07:42.564Z,98346.69
2023-04-18T16:10:11.118Z,98333.13
2023-04-18T16:12:39.500Z,98341.09
2023-04-18T16:15:08.710Z,98343.91
2023-04-18T16:17:37.116Z,98341.56
2023-04-18T16:20:06.382Z,98349.69
2023-04-18T16:22:33.533Z,98347.31
2023-04-18T16:25:00.532Z,98341.16
2023-04-18T16:27:27.532Z,98338.63
2023-04-18T16:29:54.518Z,98329.13
2023-04-18T16:32:21.675Z,98343.19
2023-04-18T16:34:48.849Z,98339.09
2023-04-18T16:37:16.097Z,98344.47
2023-04-18T16:39:43.024Z,98342.41
2023-04-18T16:42:10.513Z,98351.88
2023-04-18T16:44:39.506Z,98349.06
2023-04-18T16:47:08.448Z,98355.97
2023-04-18T16:49:35.544Z,98358.56
2023-04-18T16:52:02.466Z,98357.28
2023-04-18T16:54:29.818Z,98358.03
2023-04-18T16:56:57.234Z,98364.41
2023-04-18T16:59:24.239Z,98366.69
2023-04-18T17:01:51.244Z,98364.34
2023-04-18T17:04:18.273Z,98368.34
2023-04-18T17:06:45.347Z,98375.75
2023-04-18T17:09:13.898Z,98378.28
2023-04-18T17:11:41.917Z,98379.03
2023-04-18T17:14:09.203Z,98378.00
2023-04-18T17:16:38.763Z,98385.38
2023-04-18T17:19:06.468Z,98377.88
2023-04-18T17:21:37.320Z,98375.34
2023-04-18T17:24:06.081Z,98376.88
2023-04-18T17:26:34.188Z,98381.72
2023-04-18T17:29:06.842Z,98376.09
2023-04-18T17:31:34.320Z,98371.75
2023-04-18T17:34:01.553Z,98373.59
2023-04-18T17:36:28.661Z,98370.78
2023-04-18T17:38:56.036Z,98379.38
2023-04-18T17:41:22.883Z,98383.16
2023-04-18T17:43:53.613Z,98384.94
2023-04-18T17:46:20.675Z,98387.28
2023-04-18T17:48:47.711Z,98394.22
2023-04-18T17:51:16.579Z,98384.47
2023-04-18T17:53:43.633Z,98390.66
2023-04-18T17:56:11.049Z,98393.47
2023-04-18T17:58:39.793Z,98388.59
2023-04-18T18:01:21.173Z,98397.50
2023-04-18T18:03:49.011Z,98387.53
2023-04-18T18:06:16.570Z,98387.81
2023-04-18T18:08:43.570Z,98397.50
2023-04-18T18:11:10.953Z,98389.56
2023-04-18T18:13:39.278Z,98391.34
2023-04-18T18:16:07.314Z,98396.97
2023-04-18T18:18:34.799Z,98395.69
2023-04-18T18:21:01.718Z,98396.72
2023-04-18T18:23:29.108Z,98392.66
2023-04-18T18:25:56.005Z,98392.13
2023-04-18T18:28:22.873Z,98396.25
2023-04-18T18:30:49.848Z,98403.66
2023-04-18T18:33:16.868Z,98400.03
2023-04-18T18:35:43.801Z,98406.41
2023-04-18T18:38:10.748Z,98402.25
2023-04-18T18:40:37.750Z,98416.31
2023-04-18T18:43:04.738Z,98404.78
2023-04-18T18:45:31.932Z,98414.25
2023-04-18T18:47:58.956Z,98407.09
2023-04-18T18:50:25.838Z,98417.34
2023-04-18T18:52:52.833Z,98423.25
2023-04-18T18:55:19.849Z,98418.91
2023-04-18T18:57:47.146Z,98424.78
2023-04-18T19:00:14.499Z,98422.03
2023-04-18T19:02:41.626Z,98425.59
2023-04-18T19:05:09.294Z,98425.84
2023-04-18T19:07:36.257Z,98424.28
2023-04-18T19:10:03.676Z,98421.41
2023-04-18T19:12:31.340Z,98427.03
2023-04-18T19:14:58.258Z,98429.06
2023-04-18T19:17:25.253Z,98433.44
2023-04-18T19:19:53.138Z,98413.69
2023-04-18T19:22:20.088Z,98432.41
2023-04-18T19:24:47.228Z,98427.75
2023-04-18T19:27:14.131Z,98420.38
2023-04-18T19:29:41.212Z,98424.75
2023-04-18T19:32:08.152Z,98423.19
2023-04-18T19:34:35.052Z,98429.03
2023-04-18T19:37:02.243Z,98432.34
2023-04-18T19:39:29.569Z,98438.22
2023-04-18T19:41:56.607Z,98439.53
2023-04-18T19:44:23.497Z,98435.75
2023-04-18T19:46:50.554Z,98434.19
2023-04-18T19:49:17.511Z,98437.31
2023-04-18T19:51:44.733Z,98433.50
2023-04-18T19:54:11.629Z,98435.75
2023-04-18T19:56:38.690Z,98430.63
2023-04-18T19:59:06.338Z,98434.19
2023-04-18T20:01:33.430Z,98428.88
2023-04-18T20:04:01.289Z,98427.81
2023-04-18T20:06:28.820Z,98433.16
2023-04-18T20:08:55.901Z,98420.38
2023-04-18T20:11:22.879Z,98425.94
2023-04-18T20:13:52.466Z,98431.56
2023-04-18T20:16:19.357Z,98434.09
2023-04-18T20:18:52.928Z,98431.84
2023-04-18T20:21:22.694Z,98430.56
2023-04-18T20:23:50.826Z,98428.75
2023-04-18T20:26:20.191Z,98424.94
2023-04-18T20:28:47.189Z,98435.75
2023-04-18T20:31:14.574Z,98436.00
2023-04-18T20:33:42.793Z,98442.47
2023-04-18T20:36:09.969Z,98439.66
2023-04-18T20:38:38.477Z,98439.16
2023-04-18T20:41:05.552Z,98439.38
2023-04-18T20:43:37.473Z,98433.50
2023-04-18T20:46:04.575Z,98430.34
2023-04-18T20:48:31.914Z,98426.06
2023-04-18T20:50:59.242Z,98439.66
2023-04-18T20:53:27.445Z,98443.25
2023-04-18T20:55:54.479Z,98436.84
2023-04-18T20:58:21.863Z,98438.41
2023-04-18T21:00:49.232Z,98431.72
2023-04-18T21:03:17.046Z,98444.03
2023-04-18T21:05:45.193Z,98439.66
2023-04-18T21:08:13.652Z,98442.25
2023-04-18T21:10:41.909Z,98437.41
2023-04-18T21:13:11.364Z,98428.69
2023-04-18T21:15:38.498Z,98426.63
2023-04-18T21:18:05.911Z,98432.06
2023-04-18T21:20:35.475Z,98434.59
2023-04-18T21:23:03.767Z,98434.88
2023-04-18T21:25:33.249Z,98429.81
2023-04-18T21:28:00.860Z,98420.06
2023-04-18T21:30:28.708Z,98429.06
2023-04-18T21:32:56.814Z,98424.72
2023-04-18T21:35:24.986Z,98430.06
2023-04-18T21:37:52.101Z,98422.41
2023-04-18T21:40:20.446Z,98416.53
2023-04-18T21:42:49.813Z,98419.66
2023-04-18T21:45:19.488Z,98426.84
2023-04-18T21:47:47.101Z,98413.56
2023-04-18T21:50:14.217Z,98420.19
2023-04-18T21:52:43.104Z,98419.19
2023-04-18T21:55:11.737Z,98416.91
2023-04-18T21:57:40.735Z,98420.53
2023-04-18T22:00:10.373Z,98423.63
2023-04-18T22:02:40.222Z,98416.66
2023-04-18T22:05:10.201Z,98412.56
2023-04-18T22:07:46.704Z,98406.38
2023-04-18T22:10:21.761Z,98407.13
2023-04-18T22:12:54.215Z,98403.56
2023-04-18T22:15:21.469Z,98409.88
2023-04-18T22:17:50.880Z,98408.84
2023-04-18T22:20:17.854Z,98392.97
2023-04-18T22:22:46.091Z,98391.41
2023-04-18T22:25:13.440Z,98389.66
2023-04-18T22:27:45.002Z,98393.50
2023-04-18T22:30:14.063Z,98392.25
2023-04-18T22:32:42.302Z,98391.00
2023-04-18T22:35:10.001Z,98387.66
2023-04-18T22:37:38.499Z,98385.13
2023-04-18T22:40:08.118Z,98389.75
2023-04-18T22:42:39.148Z,98389.25
2023-04-18T22:45:08.366Z,98377.72
2023-04-18T22:47:35.452Z,98378.25
2023-04-18T22:50:03.820Z,98379.03
2023-04-18T22:52:31.230Z,98379.03
2023-04-18T22:55:00.939Z,98378.06
2023-04-18T22:57:29.884Z,98374.72
2023-04-18T22:59:56.969Z,98373.97
2023-04-18T23:02:25.003Z,98369.09
2023-04-18T23:04:53.513Z,98363.81
2023-04-18T23:07:20.783Z,98368.16
2023-04-18T23:09:48.341Z,98369.09
2023-04-18T23:12:15.728Z,98355.00
2023-04-18T23:14:43.292Z,98368.31
2023-04-18T23:17:10.568Z,98363.97
2023-04-18T23:19:37.525Z,98366.03
2023-04-18T23:22:07.397Z,98365.06
2023-04-18T23:24:36.412Z,98355.63
2023-04-18T23:27:03.369Z,98358.44
2023-04-18T23:29:30.411Z,98358.44
2023-04-18T23:31:57.445Z,98355.63
2023-04-18T23:34:24.998Z,98353.63
2023-04-18T23:36:52.638Z,98346.19
2023-04-18T23:39:19.552Z,98347.19
2023-04-18T23:41:47.278Z,98343.81
2023-04-18T23:44:15.157Z,98340.28
2023-04-18T23:46:42.230Z,98352.34
2023-04-18T23:49:10.275Z,98330.63
2023-04-18T23:51:38.344Z,98337.78
2023-04-18T23:54:05.441Z,98326.28
2023-04-18T23:56:32.778Z,98327.59
2023-04-18T23:58:59.693Z,98326.56
